Terminal Aerodrome Forecast
Issued by NWS Sterling, VA

Home | Current Version | Previous Version | Text Only | Print | Product List | Glossary On
Versions: 1 2 3 4 5 6 7 8 9 10 11 12 13 14 15 16 17 18 19 20 21 22 23
000
FTUS41 KLWX 222300
TAFBWI
TAF
KBWI 222320Z 2300/2406 17008KT P6SM SCT050
     FM230200 18007KT P6SM SCT250
     FM231900 21008KT P6SM SCT050
     FM232000 22007KT P6SM BKN050
     FM240200 28005KT P6SM BKN050=

USA.gov is the U.S. government's official web portal to all federal, state and local government web resources and services.